Time;durP1;ratioP1;P1;durP2;ratioP2;P2;SDS_P1;SDS_P2;PMS_P1;PMS_P2;Temp;Humidity;BMP_temperature;BMP_pressure;BME280_temperature;BME280_humidity;BME280_pressure;Samples;Min_cycle;Max_cycle;Signal;HPM_P1;HPM_P2
2023/10/26 00:00:10;;;;;;;6.20;1.90;;;;;;;17.74;66.57;98338.47;4428100;32;33662;-79
2023/10/26 00:02:38;;;;;;;4.37;1.70;;;;;;;17.63;67.08;98341.16;4429211;32;33134;-79
2023/10/26 00:05:06;;;;;;;5.12;1.75;;;;;;;17.55;67.21;98329.88;4423773;32;33475;-79
2023/10/26 00:07:34;;;;;;;6.40;2.00;;;;;;;17.58;67.18;98320.25;4434821;32;34407;-79
2023/10/26 00:10:02;;;;;;;5.15;1.77;;;;;;;17.32;68.08;98314.31;4430005;32;33808;-80
2023/10/26 00:12:29;;;;;;;6.60;1.80;;;;;;;17.21;68.50;98315.28;4433519;32;33696;-79
2023/10/26 00:14:57;;;;;;;8.52;1.83;;;;;;;17.18;68.66;98317.03;4410113;32;33973;-79
2023/10/26 00:17:24;;;;;;;4.68;1.73;;;;;;;17.21;68.56;98317.00;4421065;32;33695;-79
2023/10/26 00:19:52;;;;;;;6.12;1.65;;;;;;;17.38;68.02;98309.91;4429695;32;33666;-79
2023/10/26 00:22:20;;;;;;;7.55;1.80;;;;;;;17.22;68.08;98323.97;4428859;32;33184;-79
2023/10/26 00:24:49;;;;;;;6.43;1.80;;;;;;;17.58;66.58;98316.78;4420475;32;33354;-79
2023/10/26 00:27:17;;;;;;;5.97;1.92;;;;;;;17.55;65.90;98307.19;4419769;32;34110;-79
2023/10/26 00:29:44;;;;;;;6.60;1.90;;;;;;;17.03;67.72;98303.13;4429418;32;33916;-78
2023/10/26 00:32:12;;;;;;;4.50;1.77;;;;;;;17.03;68.31;98297.03;4432030;32;33266;-79
2023/10/26 00:34:40;;;;;;;5.50;2.00;;;;;;;16.81;69.45;98298.88;4434948;32;34115;-79
2023/10/26 00:37:07;;;;;;;4.90;1.90;;;;;;;16.79;69.53;98292.78;4421759;32;33624;-78
2023/10/26 00:39:35;;;;;;;4.72;1.80;;;;;;;16.75;69.30;98296.28;4414869;32;33247;-79
2023/10/26 00:42:03;;;;;;;7.80;1.80;;;;;;;16.59;69.18;98295.47;4424716;32;33050;-79
2023/10/26 00:44:32;;;;;;;4.82;2.10;;;;;;;17.01;67.85;98298.81;4434291;32;33680;-79
2023/10/26 00:47:00;;;;;;;6.00;2.10;;;;;;;17.39;65.97;98295.09;4427392;32;34530;-79
2023/10/26 00:49:27;;;;;;;6.00;1.83;;;;;;;17.22;66.41;98292.59;4414834;32;33762;-79
2023/10/26 00:51:57;;;;;;;5.50;2.00;;;;;;;16.99;67.55;98293.56;4425416;32;32922;-79
2023/10/26 00:54:25;;;;;;;5.13;2.10;;;;;;;16.51;69.69;98293.75;4395127;32;34207;-79
2023/10/26 00:56:54;;;;;;;7.05;2.47;;;;;;;16.48;70.08;98293.75;4412628;32;34339;-79
2023/10/26 00:59:24;;;;;;;6.05;2.35;;;;;;;16.97;68.30;98297.94;4415237;32;34022;-79
2023/10/26 01:01:52;;;;;;;5.82;2.25;;;;;;;16.58;68.97;98294.59;4413877;32;33588;-79
2023/10/26 01:04:19;;;;;;;6.05;2.40;;;;;;;16.31;69.81;98293.78;4427012;32;33773;-79
2023/10/26 01:06:47;;;;;;;5.97;2.40;;;;;;;16.30;69.82;98288.56;4432314;32;33432;-79
2023/10/26 01:09:15;;;;;;;6.90;2.67;;;;;;;16.30;69.18;98285.97;4427350;32;33726;-79
2023/10/26 01:11:43;;;;;;;5.95;2.40;;;;;;;16.30;68.81;98286.84;4431339;32;33411;-79
2023/10/26 01:14:11;;;;;;;7.15;2.67;;;;;;;16.44;67.92;98278.09;4433619;32;33092;-79
2023/10/26 01:16:39;;;;;;;5.40;2.15;;;;;;;16.21;69.28;98279.03;4418271;32;33667;-78
2023/10/26 01:19:08;;;;;;;5.72;2.00;;;;;;;16.21;69.61;98283.41;4426933;32;33800;-78
2023/10/26 01:21:50;;;;;;;5.22;2.60;;;;;;;16.73;67.10;98266.62;4429555;32;33724;-79
2023/10/26 01:24:20;;;;;;;5.28;2.00;;;;;;;16.86;66.29;98273.59;4433877;32;33796;-79
2023/10/26 01:26:48;;;;;;;5.10;1.90;;;;;;;16.96;65.78;98272.69;4429500;32;33705;-78
2023/10/26 01:29:16;;;;;;;7.12;2.00;;;;;;;16.34;67.95;98279.88;4421967;32;34358;-78
2023/10/26 01:31:45;;;;;;;5.60;1.90;;;;;;;15.84;70.82;98266.03;4428437;32;33584;-78
2023/10/26 01:34:13;;;;;;;5.22;1.67;;;;;;;15.89;71.39;98266.00;4433396;32;33937;-79
2023/10/26 01:36:40;;;;;;;5.53;1.70;;;;;;;15.83;71.54;98269.50;4429203;32;34371;-79
2023/10/26 01:39:08;;;;;;;4.28;1.85;;;;;;;16.17;70.72;98256.41;4428365;32;33682;-78
2023/10/26 01:41:35;;;;;;;6.03;1.80;;;;;;;16.21;70.44;98262.50;4427702;32;33058;-79
2023/10/26 01:44:03;;;;;;;6.03;1.87;;;;;;;16.19;70.85;98269.47;4423667;32;33575;-79
2023/10/26 01:46:30;;;;;;;5.07;1.98;;;;;;;16.18;70.68;98267.72;4424211;32;34619;-79
2023/10/26 01:49:01;;;;;;;6.85;2.03;;;;;;;16.11;69.42;98266.88;4431938;32;33981;-79
2023/10/26 01:51:28;;;;;;;6.07;1.83;;;;;;;16.24;67.71;98268.56;4415933;32;34130;-78
2023/10/26 01:53:56;;;;;;;6.72;2.22;;;;;;;16.04;69.00;98275.59;4429964;32;33350;-78
2023/10/26 01:56:23;;;;;;;7.67;2.60;;;;;;;16.10;68.73;98278.19;4409894;32;32315;-78
2023/10/26 01:58:51;;;;;;;5.65;2.50;;;;;;;15.94;70.06;98273.88;4431575;32;33267;-79
2023/10/26 02:01:19;;;;;;;7.37;2.25;;;;;;;15.70;70.62;98272.94;4424538;32;33130;-79
2023/10/26 02:03:48;;;;;;;7.62;2.03;;;;;;;16.07;69.05;98270.34;4432459;32;33952;-79
2023/10/26 02:06:15;;;;;;;4.25;1.90;;;;;;;15.94;69.43;98272.13;4425367;32;33641;-79
2023/10/26 02:08:43;;;;;;;6.03;2.10;;;;;;;15.94;69.68;98259.06;4433073;32;33620;-78
2023/10/26 02:11:11;;;;;;;4.80;1.83;;;;;;;15.67;70.96;98254.69;4432247;32;32717;-79
2023/10/26 02:13:40;;;;;;;7.53;1.90;;;;;;;15.66;71.50;98255.56;4412895;32;34401;-78
2023/10/26 02:16:07;;;;;;;5.43;1.98;;;;;;;15.62;72.09;98256.44;4432965;32;33701;-79
2023/10/26 02:18:35;;;;;;;5.72;2.10;;;;;;;15.84;71.33;98252.97;4432326;32;33546;-79
2023/10/26 02:21:03;;;;;;;5.62;1.70;;;;;;;16.01;70.78;98244.22;4428452;32;33357;-79
2023/10/26 02:23:30;;;;;;;7.97;2.60;;;;;;;16.37;69.68;98237.19;4430842;32;34596;-79
2023/10/26 02:25:58;;;;;;;9.02;3.30;;;;;;;16.35;69.71;98236.31;4418525;32;33560;-79
2023/10/26 02:28:25;;;;;;;8.98;3.20;;;;;;;16.37;69.83;98237.19;4428606;32;33486;-79
2023/10/26 02:30:53;;;;;;;8.60;3.10;;;;;;;16.31;70.09;98235.47;4423221;32;34167;-79
2023/10/26 02:33:22;;;;;;;9.68;2.87;;;;;;;16.34;70.10;98231.94;4415957;32;33857;-79
2023/10/26 02:35:49;;;;;;;6.35;2.40;;;;;;;16.26;70.27;98235.47;4434031;32;33638;-79
2023/10/26 02:38:17;;;;;;;6.80;2.20;;;;;;;16.43;70.19;98237.16;4425420;32;34039;-79
2023/10/26 02:40:45;;;;;;;7.07;2.28;;;;;;;16.46;69.94;98231.94;4419647;32;34055;-78
2023/10/26 02:43:12;;;;;;;6.60;2.22;;;;;;;16.21;71.02;98237.22;4433066;32;35255;-78
2023/10/26 02:45:41;;;;;;;5.13;2.33;;;;;;;16.22;70.95;98238.94;4434393;32;33529;-79
2023/10/26 02:48:08;;;;;;;6.32;2.05;;;;;;;16.20;70.36;98243.31;4419387;32;33717;-78
2023/10/26 02:50:37;;;;;;;6.18;2.15;;;;;;;16.34;69.61;98237.19;4424604;32;32906;-79
2023/10/26 02:53:05;;;;;;;12.80;2.40;;;;;;;16.29;69.35;98235.44;4424918;32;34331;-79
2023/10/26 02:55:32;;;;;;;6.30;1.58;;;;;;;16.26;69.49;98238.09;4429249;32;34033;-79
2023/10/26 02:58:00;;;;;;;5.18;1.60;;;;;;;16.26;69.22;98235.47;4433045;32;33849;-78
2023/10/26 03:00:27;;;;;;;5.43;1.85;;;;;;;16.24;68.88;98233.72;4434787;32;33319;-78
2023/10/26 03:02:55;;;;;;;4.90;2.00;;;;;;;15.73;70.69;98234.69;4435218;32;33733;-78
2023/10/26 03:05:23;;;;;;;5.32;1.90;;;;;;;15.98;69.82;98245.12;4429640;32;34269;-79
2023/10/26 03:07:52;;;;;;;6.13;2.33;;;;;;;15.81;70.15;98249.50;4405629;32;854913;-79
2023/10/26 03:10:20;;;;;;;5.62;2.35;;;;;;;15.58;70.47;98250.34;4430113;32;33305;-79
2023/10/26 03:12:48;;;;;;;7.18;2.70;;;;;;;15.72;69.95;98248.63;4424181;32;33765;-79
2023/10/26 03:18:02;;;;;;;6.50;2.90;;;;;;;15.62;70.73;98244.25;4425202;32;32849;-79
2023/10/26 03:20:31;;;;;;;7.35;2.47;;;;;;;15.65;70.51;98246.00;4432737;32;33978;-78
2023/10/26 03:22:59;;;;;;;4.93;2.50;;;;;;;15.51;71.12;98249.50;4430534;32;34459;-79
2023/10/26 03:25:27;;;;;;;6.85;2.67;;;;;;;15.65;70.62;98246.00;4415481;32;33531;-79
2023/10/26 03:27:56;;;;;;;5.82;2.50;;;;;;;15.60;71.31;98253.81;4430366;32;34017;-79
2023/10/26 03:30:23;;;;;;;7.93;2.67;;;;;;;15.37;72.16;98251.19;4433789;32;33979;-79
2023/10/26 03:32:51;;;;;;;4.95;2.00;;;;;;;15.51;71.69;98254.69;4431416;32;33901;-78
2023/10/26 03:35:19;;;;;;;5.50;2.60;;;;;;;15.44;71.82;98252.94;4426223;32;34340;-78
2023/10/26 03:37:46;;;;;;;7.27;2.60;;;;;;;15.48;71.65;98262.53;4430468;32;33851;-78
2023/10/26 03:40:14;;;;;;;5.45;2.40;;;;;;;15.49;71.85;98261.66;4425306;32;32852;-79
2023/10/26 03:42:42;;;;;;;6.87;2.90;;;;;;;15.50;71.54;98252.94;4428838;32;33569;-79
2023/10/26 03:45:10;;;;;;;7.80;2.30;;;;;;;15.54;71.51;98253.81;4417896;32;34576;-79
2023/10/26 03:47:39;;;;;;;6.37;2.47;;;;;;;15.67;70.85;98262.53;4429801;32;33535;-79
2023/10/26 03:50:07;;;;;;;6.68;2.95;;;;;;;15.95;69.68;98259.91;4430448;32;33205;-78
2023/10/26 03:52:35;;;;;;;6.20;2.08;;;;;;;15.54;70.31;98259.03;4430147;32;33568;-78
2023/10/26 03:55:04;;;;;;;5.30;1.90;;;;;;;15.68;69.27;98256.44;4410307;32;34444;-79
2023/10/26 03:57:33;;;;;;;5.87;1.90;;;;;;;15.58;69.35;98258.16;4428581;32;33427;-78
2023/10/26 04:00:01;;;;;;;5.60;1.90;;;;;;;15.57;69.01;98247.72;4427810;32;33262;-79
2023/10/26 04:02:38;;;;;;;7.35;2.20;;;;;;;15.36;69.74;98244.25;4432018;32;32979;-78
2023/10/26 04:05:06;;;;;;;9.05;2.28;;;;;;;15.34;69.47;98251.22;4433697;32;33787;-79
2023/10/26 04:07:34;;;;;;;7.43;2.33;;;;;;;15.24;69.89;98252.06;4430184;32;34190;-79
2023/10/26 04:10:05;;;;;;;8.05;2.22;;;;;;;15.20;70.04;98252.94;4425340;32;33329;-79
2023/10/26 04:12:33;;;;;;;6.47;2.60;;;;;;;15.12;70.58;98250.31;4426753;32;33367;-79
2023/10/26 04:15:01;;;;;;;6.90;2.15;;;;;;;15.26;69.88;98252.94;4416019;32;34642;-78
2023/10/26 04:17:30;;;;;;;5.00;2.25;;;;;;;15.23;70.41;98243.38;4429452;32;33559;-79
2023/10/26 04:19:59;;;;;;;6.97;3.00;;;;;;;15.28;70.30;98251.22;4398967;32;32790;-79
2023/10/26 04:22:26;;;;;;;7.28;3.33;;;;;;;15.44;70.00;98247.75;4431293;32;33700;-79
2023/10/26 04:24:54;;;;;;;9.45;4.30;;;;;;;15.27;70.29;98249.47;4423382;32;33499;-78
2023/10/26 04:27:22;;;;;;;8.27;4.70;;;;;;;15.25;70.10;98251.19;4427641;32;33653;-79
2023/10/26 04:29:50;;;;;;;10.43;4.62;;;;;;;15.12;70.68;98255.53;4423829;32;33882;-78
2023/10/26 04:32:17;;;;;;;10.52;4.40;;;;;;;14.95;71.27;98252.91;4432261;32;33328;-79
2023/10/26 04:34:45;;;;;;;7.75;3.83;;;;;;;15.08;70.89;98252.03;4426095;32;33379;-79
2023/10/26 04:37:13;;;;;;;8.82;3.50;;;;;;;15.09;70.84;98250.31;4425090;32;34342;-78
2023/10/26 04:39:44;;;;;;;7.97;3.17;;;;;;;15.17;70.50;98253.81;4423272;32;33450;-79
2023/10/26 04:42:12;;;;;;;7.78;3.00;;;;;;;14.94;71.39;98245.94;4427434;32;34800;-79
2023/10/26 04:44:40;;;;;;;8.23;2.95;;;;;;;14.90;71.66;98262.44;4423775;32;33421;-79
2023/10/26 04:47:08;;;;;;;6.87;2.87;;;;;;;14.94;71.49;98267.66;4427125;32;33709;-79
2023/10/26 04:49:37;;;;;;;8.95;3.15;;;;;;;14.90;71.74;98259.84;4427739;32;33721;-79
2023/10/26 04:52:05;;;;;;;11.52;5.62;;;;;;;15.23;70.04;98259.03;4430538;32;34793;-79
2023/10/26 04:54:32;;;;;;;13.10;5.53;;;;;;;14.93;71.27;98265.94;4433124;32;33929;-79
2023/10/26 04:57:00;;;;;;;11.90;5.05;;;;;;;15.13;70.94;98258.13;4423118;32;33693;-79
2023/10/26 04:59:27;;;;;;;8.80;4.18;;;;;;;15.26;70.61;98260.75;4433425;32;33290;-79
2023/10/26 05:01:55;;;;;;;10.00;3.70;;;;;;;15.05;71.40;98257.25;4429726;32;33973;-79
2023/10/26 05:04:23;;;;;;;10.13;3.80;;;;;;;14.96;72.06;98254.63;4430889;32;34041;-79
2023/10/26 05:06:51;;;;;;;12.95;5.90;;;;;;;14.97;72.36;98261.59;4428560;32;33963;-79
2023/10/26 05:09:18;;;;;;;12.05;5.68;;;;;;;15.02;72.53;98254.63;4429172;32;33452;-79
2023/10/26 05:11:46;;;;;;;11.35;6.25;;;;;;;15.00;72.75;98261.59;4426355;32;34338;-79
2023/10/26 05:14:14;;;;;;;8.43;4.20;;;;;;;15.09;72.58;98256.41;4423874;32;33780;-79
2023/10/26 05:16:41;;;;;;;10.63;4.30;;;;;;;15.34;71.83;98259.03;4424674;32;33849;-80
2023/10/26 05:19:09;;;;;;;9.93;4.87;;;;;;;15.17;72.63;98250.34;4426587;32;34095;-78
2023/10/26 05:21:38;;;;;;;9.52;5.00;;;;;;;15.26;72.50;98255.53;4407180;32;33395;-79
2023/10/26 05:24:05;;;;;;;12.05;6.05;;;;;;;15.23;72.48;98258.16;4426766;32;33307;-79
2023/10/26 05:26:33;;;;;;;14.38;6.87;;;;;;;15.46;71.98;98264.25;4431962;32;34491;-79
2023/10/26 05:29:03;;;;;;;12.35;6.40;;;;;;;15.13;73.15;98278.13;4422306;32;33439;-79
2023/10/26 05:31:30;;;;;;;12.48;6.68;;;;;;;15.44;71.89;98263.37;4408969;32;33570;-79
2023/10/26 05:33:58;;;;;;;11.75;6.22;;;;;;;15.29;72.46;98268.59;4428519;32;33857;-78
2023/10/26 05:36:26;;;;;;;11.98;5.65;;;;;;;15.45;71.63;98283.41;4432755;32;33421;-79
2023/10/26 05:38:53;;;;;;;14.05;5.60;;;;;;;15.73;70.46;98280.84;4411617;32;33299;-78
2023/10/26 05:41:21;;;;;;;11.75;5.10;;;;;;;15.64;70.47;98270.34;4428985;32;34409;-79
2023/10/26 05:43:48;;;;;;;9.90;4.70;;;;;;;15.84;69.53;98279.09;4427398;32;34490;-79
2023/10/26 05:46:17;;;;;;;11.43;4.35;;;;;;;15.54;70.59;98280.78;4427464;32;33815;-78
2023/10/26 05:48:46;;;;;;;10.63;4.32;;;;;;;15.46;71.38;98282.53;4425636;32;33350;-79
2023/10/26 05:51:14;;;;;;;8.73;3.37;;;;;;;15.48;71.28;98269.50;4415227;32;33900;-78
2023/10/26 05:53:41;;;;;;;9.50;2.90;;;;;;;15.28;72.86;98264.25;4426317;32;33030;-78
2023/10/26 05:56:10;;;;;;;11.82;3.28;;;;;;;15.38;73.30;98286.87;4431735;32;34390;-79
2023/10/26 05:58:38;;;;;;;10.30;3.78;;;;;;;15.54;73.07;98291.22;4429054;32;33652;-79
2023/10/26 06:01:05;;;;;;;7.70;3.43;;;;;;;15.47;73.90;98289.50;4426052;32;34461;-79
2023/10/26 06:03:33;;;;;;;9.10;3.80;;;;;;;15.75;73.08;98294.75;4432693;32;33771;-79
2023/10/26 06:06:01;;;;;;;11.18;5.07;;;;;;;15.63;73.73;98299.94;4424099;32;33629;-79
2023/10/26 06:08:29;;;;;;;11.48;6.10;;;;;;;15.86;73.02;98319.13;4423650;32;33074;-79
2023/10/26 06:10:57;;;;;;;8.57;4.82;;;;;;;16.15;72.35;98317.34;4395362;32;34603;-79
2023/10/26 06:13:26;;;;;;;7.32;4.07;;;;;;;16.53;70.63;98317.25;4422365;32;34963;-79
2023/10/26 06:15:53;;;;;;;8.73;3.70;;;;;;;16.33;71.11;98329.53;4413007;32;34304;-79
2023/10/26 06:18:21;;;;;;;7.30;3.00;;;;;;;16.57;71.00;98329.44;4427986;32;32699;-78
2023/10/26 06:21:02;;;;;;;10.47;3.70;;;;;;;15.88;73.90;98330.44;4431475;32;34674;-79
2023/10/26 06:23:29;;;;;;;7.60;3.45;;;;;;;15.82;74.72;98330.44;4427293;32;33126;-79
2023/10/26 06:26:00;;;;;;;10.23;3.85;;;;;;;15.80;75.09;98334.78;4429902;32;34283;-79
2023/10/26 06:28:28;;;;;;;10.45;3.90;;;;;;;15.89;74.88;98347.81;4432466;32;32990;-78
2023/10/26 06:31:15;;;;;;;10.63;4.07;;;;;;;16.05;74.58;98350.44;4424789;32;34009;-79
2023/10/26 06:33:43;;;;;;;8.50;4.05;;;;;;;16.19;74.00;98347.84;4424267;32;32962;-79
2023/10/26 06:36:11;;;;;;;11.30;4.25;;;;;;;16.36;73.63;98339.94;4422979;32;34783;-79
2023/10/26 06:38:39;;;;;;;7.80;4.28;;;;;;;16.45;73.01;98332.97;4423205;32;33482;-79
2023/10/26 06:41:07;;;;;;;11.32;4.45;;;;;;;16.44;73.24;98335.59;4423832;32;33961;-78
2023/10/26 06:43:36;;;;;;;9.30;4.25;;;;;;;16.64;72.44;98341.63;4429933;32;33796;-78
2023/10/26 06:46:04;;;;;;;11.80;4.18;;;;;;;16.66;72.38;98345.09;4426971;32;34143;-79
2023/10/26 06:48:32;;;;;;;10.10;4.32;;;;;;;16.65;72.18;98343.38;4427772;32;34173;-78
2023/10/26 06:51:01;;;;;;;8.77;4.30;;;;;;;16.89;71.17;98336.34;4428394;32;33910;-78
2023/10/26 06:53:29;;;;;;;10.85;4.90;;;;;;;17.08;70.02;98343.25;4423187;32;33452;-78
2023/10/26 06:55:58;;;;;;;9.73;4.97;;;;;;;16.91;70.69;98350.28;4421991;32;34430;-79
2023/10/26 06:58:26;;;;;;;8.80;4.87;;;;;;;16.82;70.76;98352.94;4430687;32;33189;-79
2023/10/26 07:00:54;;;;;;;9.65;4.80;;;;;;;16.99;70.35;98331.94;4427003;32;34515;-77
2023/10/26 07:03:21;;;;;;;10.60;5.28;;;;;;;17.17;69.14;98341.44;4413940;32;33846;-78
2023/10/26 07:05:49;;;;;;;9.07;5.20;;;;;;;16.88;70.73;98345.06;4410462;32;33654;-79
2023/10/26 07:08:17;;;;;;;12.07;5.37;;;;;;;16.85;70.96;98358.16;4422679;32;32948;-79
2023/10/26 07:10:44;;;;;;;8.73;5.00;;;;;;;16.97;70.55;98359.84;4427045;32;34615;-80
2023/10/26 07:13:12;;;;;;;9.90;5.45;;;;;;;16.78;71.05;98369.47;4430267;32;33591;-78
2023/10/26 07:15:40;;;;;;;9.93;5.60;;;;;;;16.71;71.30;98361.66;4424743;32;33688;-79
2023/10/26 07:18:07;;;;;;;9.35;5.32;;;;;;;16.63;71.73;98365.16;4422081;32;33091;-80
2023/10/26 07:20:36;;;;;;;9.77;5.53;;;;;;;16.86;70.88;98368.63;4433520;32;34435;-80
2023/10/26 07:23:04;;;;;;;10.25;6.00;;;;;;;16.61;71.56;98367.78;4427132;32;33359;-80
2023/10/26 07:25:35;;;;;;;10.88;5.40;;;;;;;16.57;72.53;98363.41;4431017;32;34634;-79
2023/10/26 07:28:03;;;;;;;8.44;5.58;;;;;;;16.46;72.54;98358.22;4423090;32;33208;-80
2023/10/26 07:30:31;;;;;;;12.48;6.10;;;;;;;16.63;72.31;98360.81;4433333;32;33847;-79
2023/10/26 07:32:58;;;;;;;10.32;6.28;;;;;;;16.68;72.53;98348.59;4417603;32;33922;-79
2023/10/26 07:35:26;;;;;;;11.45;6.45;;;;;;;16.77;71.59;98347.69;4421682;32;34770;-79
2023/10/26 07:37:54;;;;;;;13.60;6.62;;;;;;;16.98;71.36;98352.00;4418574;32;32009;-79
2023/10/26 07:40:53;;;;;;;11.52;6.43;;;;;;;16.88;71.71;98365.97;4433592;32;33251;-80
2023/10/26 07:43:20;;;;;;;11.93;6.65;;;;;;;16.80;72.46;98362.50;4429799;32;32799;-78
2023/10/26 07:45:51;;;;;;;10.27;6.18;;;;;;;17.13;71.47;98369.37;4410490;32;32286;-80
2023/10/26 07:48:18;;;;;;;13.15;6.87;;;;;;;17.20;70.88;98365.84;4410710;32;33952;-78
2023/10/26 07:50:46;;;;;;;11.23;6.57;;;;;;;17.04;71.90;98372.91;4425857;32;34245;-79
2023/10/26 07:53:15;;;;;;;11.10;6.40;;;;;;;17.10;71.44;98380.72;4427451;32;34606;-78
2023/10/26 07:55:44;;;;;;;12.52;6.43;;;;;;;17.01;71.52;98372.91;4425497;32;33817;-79
2023/10/26 07:58:11;;;;;;;11.52;6.62;;;;;;;17.00;71.81;98376.41;4428693;32;33602;-79
2023/10/26 08:00:39;;;;;;;11.73;6.45;;;;;;;16.96;72.15;98379.94;4416040;32;33978;-79
2023/10/26 08:03:07;;;;;;;10.55;6.28;;;;;;;17.30;70.73;98379.75;4423328;32;33771;-79
2023/10/26 08:05:35;;;;;;;11.48;6.50;;;;;;;16.97;71.77;98389.50;4413363;32;33854;-79
2023/10/26 08:08:02;;;;;;;9.93;6.07;;;;;;;17.24;70.32;98390.25;4424096;32;33251;-79
2023/10/26 08:10:35;;;;;;;10.02;6.35;;;;;;;17.26;70.65;98378.91;4420720;32;33598;-78
2023/10/26 08:13:05;;;;;;;10.77;6.47;;;;;;;17.29;70.15;98384.13;4423464;32;33249;-80
2023/10/26 08:15:34;;;;;;;9.57;6.15;;;;;;;17.35;70.38;98388.47;4424064;32;35244;-79
2023/10/26 08:18:21;;;;;;;9.05;6.30;;;;;;;17.37;70.52;98388.47;4432582;32;32861;-78
2023/10/26 08:20:51;;;;;;;10.52;6.50;;;;;;;17.40;70.07;98396.28;4425010;32;34427;-81
2023/10/26 08:23:36;;;;;;;11.00;5.90;;;;;;;17.52;69.83;98400.56;4423681;32;32462;-79
2023/10/26 08:26:06;;;;;;;11.12;6.22;;;;;;;17.61;68.33;98413.63;4423781;32;33981;-79
2023/10/26 08:28:37;;;;;;;10.03;5.77;;;;;;;17.31;69.81;98407.69;4423497;32;33721;-79
2023/10/26 08:31:06;;;;;;;10.57;5.90;;;;;;;17.39;70.18;98405.03;4400720;32;33305;-79
2023/10/26 08:33:34;;;;;;;10.07;6.12;;;;;;;17.28;70.57;98397.22;4427421;32;34580;-79
2023/10/26 08:36:04;;;;;;;9.98;6.12;;;;;;;17.33;70.44;98400.69;4432859;32;33862;-80
2023/10/26 08:38:32;;;;;;;8.43;5.75;;;;;;;17.42;69.64;98405.88;4409913;32;34691;-80
2023/10/26 08:41:00;;;;;;;8.73;5.70;;;;;;;17.14;71.37;98404.28;4429625;32;33817;-80
2023/10/26 08:43:28;;;;;;;10.52;6.05;;;;;;;17.63;69.90;98399.63;4430121;32;34471;-79
2023/10/26 08:45:59;;;;;;;10.57;5.90;;;;;;;17.56;69.94;98397.06;4409795;32;33086;-80
2023/10/26 08:48:29;;;;;;;9.18;5.85;;;;;;;17.67;69.83;98395.25;4433827;32;32508;-81
2023/10/26 08:50:57;;;;;;;8.90;5.57;;;;;;;17.85;69.11;98394.31;4427308;32;34196;-80
2023/10/26 08:53:24;;;;;;;11.10;6.03;;;;;;;17.97;68.40;98388.13;4434026;32;34573;-80
2023/10/26 08:55:54;;;;;;;10.88;6.47;;;;;;;18.03;68.54;98390.69;4431765;32;34630;-80
2023/10/26 08:58:22;;;;;;;8.77;5.82;;;;;;;18.23;68.88;98390.50;4427710;32;33230;-80
2023/10/26 09:00:53;;;;;;;10.40;6.47;;;;;;;18.54;68.09;98390.22;4423133;32;34216;-80
2023/10/26 09:03:22;;;;;;;9.25;6.30;;;;;;;18.41;66.52;98399.97;4430421;32;32782;-80
2023/10/26 09:05:55;;;;;;;9.70;6.50;;;;;;;18.68;65.69;98396.22;4424290;32;33181;-80
2023/10/26 09:08:23;;;;;;;9.57;6.60;;;;;;;18.63;66.09;98405.88;4423758;32;32881;-79
2023/10/26 09:10:51;;;;;;;10.30;6.47;;;;;;;18.60;66.65;98409.41;4426694;32;34374;-79
2023/10/26 09:13:26;;;;;;;8.77;6.25;;;;;;;18.43;66.30;98408.69;4427205;32;33392;-79
2023/10/26 09:15:57;;;;;;;10.85;6.43;;;;;;;18.65;65.92;98410.19;4422989;32;33953;-80
2023/10/26 09:18:28;;;;;;;10.80;6.78;;;;;;;18.81;65.17;98410.06;4431415;32;32867;-79
2023/10/26 09:21:07;;;;;;;9.98;6.82;;;;;;;18.73;65.97;98418.00;4425668;32;33481;-79
2023/10/26 09:23:39;;;;;;;10.57;7.00;;;;;;;18.62;66.28;98415.50;4425967;32;32994;-80
2023/10/26 09:26:08;;;;;;;10.93;7.00;;;;;;;18.95;66.12;98423.94;4419217;32;33822;-80
2023/10/26 09:28:50;;;;;;;9.80;6.62;;;;;;;19.41;63.26;98419.88;4427740;32;33139;-79
2023/10/26 09:31:18;;;;;;;10.77;6.65;;;;;;;19.36;63.51;98422.56;4431455;32;33578;-80
2023/10/26 09:33:47;;;;;;;9.77;7.10;;;;;;;19.10;63.68;98425.50;4416423;32;33522;-80
2023/10/26 09:36:16;;;;;;;10.13;7.25;;;;;;;19.19;63.52;98433.25;4421212;32;34774;-79
2023/10/26 09:38:44;;;;;;;11.18;7.40;;;;;;;19.26;63.20;98434.06;4432476;32;33352;-79
2023/10/26 09:41:13;;;;;;;13.43;7.07;;;;;;;19.43;63.00;98439.97;4409531;32;33351;-80
2023/10/26 09:43:40;;;;;;;11.43;7.57;;;;;;;19.20;63.96;98434.12;4428556;32;33686;-80
2023/10/26 09:46:10;;;;;;;10.10;7.28;;;;;;;19.24;63.69;98420.09;4410092;32;33246;-80
2023/10/26 09:48:38;;;;;;;11.32;6.85;;;;;;;19.56;62.54;98418.81;4423235;32;33334;-80
2023/10/26 09:51:06;;;;;;;10.75;7.10;;;;;;;19.38;63.17;98409.41;4428430;32;34471;-80
2023/10/26 09:53:36;;;;;;;10.20;6.82;;;;;;;19.59;61.89;98411.75;4427049;32;33584;-80
2023/10/26 09:56:05;;;;;;;10.13;6.87;;;;;;;19.66;61.51;98412.53;4418790;32;32684;-80
2023/10/26 09:58:41;;;;;;;9.57;6.35;;;;;;;19.67;61.84;98411.66;4410708;32;33922;-80
2023/10/26 10:01:34;;;;;;;10.87;7.10;;;;;;;19.77;61.67;98409.78;4408070;32;33258;-80
2023/10/26 10:04:06;;;;;;;10.60;7.15;;;;;;;19.50;61.84;98411.00;4426856;32;33076;-80
2023/10/26 10:06:53;;;;;;;8.80;6.32;;;;;;;19.61;60.88;98409.97;4426942;32;33385;-80
2023/10/26 10:09:23;;;;;;;11.05;7.35;;;;;;;19.47;60.83;98411.03;4422833;32;33248;-79
2023/10/26 10:12:08;;;;;;;11.18;7.55;;;;;;;19.75;61.08;98396.66;4423732;32;33793;-80
2023/10/26 10:14:50;;;;;;;10.75;7.53;;;;;;;19.94;60.14;98392.00;4424269;32;33305;-79
2023/10/26 10:17:19;;;;;;;10.67;7.03;;;;;;;20.48;58.43;98393.75;4430205;32;32704;-79
2023/10/26 10:19:48;;;;;;;11.02;7.37;;;;;;;20.28;58.60;98395.84;4427630;32;34014;-78
2023/10/26 10:22:34;;;;;;;11.40;7.00;;;;;;;20.61;57.91;98390.03;4421905;32;33700;-80
2023/10/26 10:25:01;;;;;;;10.68;7.37;;;;;;;21.15;56.12;98380.19;4426835;32;33181;-78
2023/10/26 10:27:32;;;;;;;10.57;7.30;;;;;;;21.27;54.95;98379.97;4426783;32;32731;-78
2023/10/26 10:30:05;;;;;;;13.07;6.30;;;;;;;21.27;54.49;98385.22;4432625;32;33562;-79
2023/10/26 10:32:45;;;;;;;9.93;6.43;;;;;;;21.57;52.96;98374.94;4412563;32;33265;-79
2023/10/26 10:35:27;;;;;;;9.45;6.07;;;;;;;21.51;52.91;98378.56;4413915;32;31677;-79
2023/10/26 10:38:10;;;;;;;8.90;5.60;;;;;;;21.68;51.58;98372.06;4408299;32;33418;-79
2023/10/26 10:40:40;;;;;;;8.73;5.82;;;;;;;21.36;52.11;98374.50;4423888;32;31845;-81
2023/10/26 10:43:07;;;;;;;8.27;5.40;;;;;;;21.61;52.32;98379.22;4420658;32;34534;-81
2023/10/26 10:45:35;;;;;;;7.47;4.97;;;;;;;21.52;51.71;98379.47;4412097;32;33320;-80
2023/10/26 10:48:04;;;;;;;8.45;4.72;;;;;;;21.57;50.84;98372.31;4425138;32;34587;-80
2023/10/26 10:50:32;;;;;;;7.60;4.12;;;;;;;21.36;50.05;98374.50;4413408;32;33776;-80
2023/10/26 10:53:00;;;;;;;8.63;4.25;;;;;;;22.13;47.93;98371.84;4412984;32;34604;-80
2023/10/26 10:55:29;;;;;;;6.47;3.95;;;;;;;22.24;47.93;98372.47;4408882;32;32083;-80
2023/10/26 10:57:58;;;;;;;6.72;3.37;;;;;;;22.32;47.47;98372.28;4403641;32;33509;-80
2023/10/26 11:00:49;;;;;;;7.03;3.85;;;;;;;22.02;46.52;98369.50;4429788;32;33810;-80
2023/10/26 11:03:26;;;;;;;6.12;3.35;;;;;;;22.15;47.18;98368.28;4424544;32;32894;-80
2023/10/26 11:05:54;;;;;;;4.82;2.60;;;;;;;22.29;45.93;98369.72;4422829;32;33997;-80
2023/10/26 11:08:21;;;;;;;5.32;2.62;;;;;;;21.95;45.81;98360.00;4424174;32;33738;-80
2023/10/26 11:10:49;;;;;;;5.13;2.80;;;;;;;22.20;44.37;98362.91;4427060;32;33320;-80
2023/10/26 11:13:21;;;;;;;5.45;3.17;;;;;;;22.17;44.88;98358.56;4428828;32;33663;-80
2023/10/26 11:15:49;;;;;;;4.10;2.10;;;;;;;22.41;45.06;98366.78;4432846;32;33471;-80
2023/10/26 11:18:16;;;;;;;5.25;2.33;;;;;;;21.82;45.35;98348.88;4424847;32;33868;-80
2023/10/26 11:20:47;;;;;;;3.70;2.10;;;;;;;21.97;45.28;98347.66;4413178;32;32187;-80
2023/10/26 11:23:19;;;;;;;5.63;2.50;;;;;;;22.54;43.66;98347.09;4415326;32;33121;-80
2023/10/26 11:25:46;;;;;;;5.03;2.60;;;;;;;22.66;43.01;98351.16;4423245;32;33438;-80
2023/10/26 11:28:14;;;;;;;5.97;2.75;;;;;;;22.93;43.53;98338.09;4422910;32;33691;-80
2023/10/26 11:30:53;;;;;;;5.07;2.47;;;;;;;22.85;43.17;98343.59;4428969;32;34024;-80
2023/10/26 11:33:39;;;;;;;4.75;2.10;;;;;;;22.86;42.57;98342.69;4414950;32;32470;-80
2023/10/26 11:36:09;;;;;;;4.43;2.10;;;;;;;22.96;41.08;98328.28;4422659;32;32973;-80
2023/10/26 11:38:50;;;;;;;3.50;1.90;;;;;;;22.69;43.01;98335.22;4427108;32;33204;-76
2023/10/26 11:41:25;;;;;;;3.62;1.73;;;;;;;22.48;42.80;98331.41;4427653;32;33040;-79
2023/10/26 11:43:52;;;;;;;3.92;1.70;;;;;;;22.92;40.82;98336.38;4433155;32;32960;-79